ATI908 KMIA-KJFK
Flight info
| Callsign | ATI908 |
|---|---|
| Flight time | N/A |
| Altitude | FL340 |
| Route | FOLZZ3 ALYRA PELCN Y309 FLRDA SAGGY CHIEZ Q161 KALDA Q108 SIE CAMRN5 |
| Aircraft | B763/H-SABDE1E2FGIJ1J3J4J5J6J7M2M3P1P2RTUVW/NACEHB1B2U1V1V2D1G1 |
Departure
| Time | 2026-04-30 21:45 |
|---|---|
| Airport | Miami International Airport (KMIA) |
Arrival
| Time | N/A |
|---|---|
| Airport | John F. Kennedy International Airport (KJFK) |
| Time | Latitude | Longitude | Altitude | Speed | Heading |
|---|---|---|---|---|---|
| 2026-04-30 21:02 | 25.80508 | -80.29399 | 22 ft | 0 kts | 360° |
| 2026-04-30 21:37 | 25.80502 | -80.29399 | 22 ft | 0 kts | 360° |
| 2026-04-30 21:38 | 25.80489 | -80.29399 | 22 ft | 0 kts | 360° |
| 2026-04-30 21:38 | 25.80475 | -80.29399 | 22 ft | 0 kts | 360° |
| 2026-04-30 21:38 | 25.80462 | -80.29399 | 22 ft | 0 kts | 360° |
| 2026-04-30 21:38 | 25.80448 | -80.29399 | 22 ft | 0 kts | 354° |
| 2026-04-30 21:39 | 25.80437 | -80.29392 | 22 ft | 0 kts | 311° |
| 2026-04-30 21:39 | 25.80432 | -80.29378 | 22 ft | 0 kts | 268° |
| 2026-04-30 21:39 | 25.80432 | -80.29373 | 22 ft | 0 kts | 268° |
| 2026-04-30 21:39 | 25.80432 | -80.29374 | 22 ft | 0 kts | 268° |
| 2026-04-30 21:40 | 25.80432 | -80.29375 | 22 ft | 0 kts | 268° |
| 2026-04-30 21:41 | 25.80432 | -80.29381 | 22 ft | 3 kts | 268° |
| 2026-04-30 21:41 | 25.80430 | -80.29413 | 22 ft | 6 kts | 266° |
| 2026-04-30 21:41 | 25.80427 | -80.29469 | 22 ft | 7 kts | 266° |
| 2026-04-30 21:41 | 25.80424 | -80.29524 | 22 ft | 9 kts | 267° |
| 2026-04-30 21:42 | 25.80422 | -80.29598 | 22 ft | 9 kts | 268° |
| 2026-04-30 21:42 | 25.80419 | -80.29686 | 22 ft | 14 kts | 268° |
| 2026-04-30 21:42 | 25.80414 | -80.29804 | 22 ft | 15 kts | 266° |
| 2026-04-30 21:42 | 25.80407 | -80.29928 | 22 ft | 15 kts | 268° |
| 2026-04-30 21:43 | 25.80397 | -80.30030 | 22 ft | 12 kts | 234° |
| 2026-04-30 21:43 | 25.80321 | -80.30052 | 22 ft | 10 kts | 147° |
| 2026-04-30 21:43 | 25.80298 | -80.29987 | 22 ft | 0 kts | 91° |
| 2026-04-30 21:43 | 25.80298 | -80.29986 | 22 ft | 0 kts | 91° |
| 2026-04-30 21:44 | 25.80298 | -80.29985 | 22 ft | 2 kts | 91° |
| 2026-04-30 21:44 | 25.80305 | -80.29776 | 22 ft | 70 kts | 89° |
| 2026-04-30 21:44 | 25.80341 | -80.28896 | 23 ft | 156 kts | 88° |
| 2026-04-30 21:44 | 25.80384 | -80.27474 | 273 ft | 200 kts | 90° |
| 2026-04-30 21:45 | 25.80401 | -80.25912 | 684 ft | 205 kts | 93° |
| 2026-04-30 21:45 | 25.80113 | -80.24330 | 1177 ft | 214 kts | 110° |
| 2026-04-30 21:45 | 25.79481 | -80.22841 | 1790 ft | 217 kts | 121° |
| 2026-04-30 21:45 | 25.78688 | -80.21383 | 2441 ft | 224 kts | 124° |
| 2026-04-30 21:46 | 25.77837 | -80.19900 | 3095 ft | 231 kts | 125° |
| 2026-04-30 21:46 | 25.76967 | -80.18385 | 3745 ft | 236 kts | 124° |
| 2026-04-30 21:46 | 25.76118 | -80.16811 | 4388 ft | 241 kts | 122° |
| 2026-04-30 21:46 | 25.75287 | -80.15162 | 4722 ft | 249 kts | 120° |
| 2026-04-30 21:47 | 25.74475 | -80.13447 | 4853 ft | 254 kts | 117° |
| 2026-04-30 21:47 | 25.74053 | -80.11560 | 4888 ft | 254 kts | 92° |
| 2026-04-30 21:47 | 25.74481 | -80.09631 | 5025 ft | 270 kts | 65° |
| 2026-04-30 21:47 | 25.75554 | -80.07863 | 5736 ft | 282 kts | 51° |
| 2026-04-30 21:48 | 25.76845 | -80.06208 | 6711 ft | 285 kts | 46° |
| 2026-04-30 21:48 | 25.78191 | -80.04572 | 7714 ft | 288 kts | 45° |
| 2026-04-30 21:48 | 25.79542 | -80.02936 | 8716 ft | 290 kts | 45° |
| 2026-04-30 21:48 | 25.80914 | -80.01276 | 9717 ft | 293 kts | 44° |
| 2026-04-30 21:49 | 25.82306 | -79.99595 | 10541 ft | 304 kts | 44° |
| 2026-04-30 21:49 | 25.83798 | -79.97806 | 10947 ft | 329 kts | 44° |
| 2026-04-30 21:49 | 25.85409 | -79.95874 | 11297 ft | 355 kts | 44° |
| 2026-04-30 21:49 | 25.87115 | -79.93788 | 11894 ft | 371 kts | 45° |
| 2026-04-30 21:50 | 25.88850 | -79.91628 | 12733 ft | 380 kts | 45° |
| 2026-04-30 21:50 | 25.90613 | -79.89419 | 13670 ft | 385 kts | 45° |
| 2026-04-30 21:50 | 25.92393 | -79.87164 | 14610 ft | 390 kts | 45° |
| 2026-04-30 21:50 | 25.94176 | -79.84861 | 15538 ft | 395 kts | 46° |
| 2026-04-30 21:51 | 25.95959 | -79.82539 | 16429 ft | 399 kts | 46° |
| 2026-04-30 21:51 | 25.97771 | -79.80179 | 17300 ft | 403 kts | 46° |
| 2026-04-30 21:51 | 25.99587 | -79.77824 | 18297 ft | 403 kts | 49° |
| 2026-04-30 21:51 | 26.01414 | -79.75450 | 19198 ft | 406 kts | 49° |
| 2026-04-30 21:52 | 26.03267 | -79.73055 | 19988 ft | 411 kts | 49° |
| 2026-04-30 21:52 | 26.05149 | -79.70631 | 20736 ft | 417 kts | 49° |
| 2026-04-30 21:52 | 26.07053 | -79.68196 | 21463 ft | 422 kts | 49° |
| 2026-04-30 21:52 | 26.09000 | -79.65729 | 22194 ft | 427 kts | 49° |
| 2026-04-30 21:53 | 26.10967 | -79.63228 | 22910 ft | 432 kts | 49° |
| 2026-04-30 21:53 | 26.12829 | -79.60566 | 23499 ft | 440 kts | 53° |
| 2026-04-30 21:53 | 26.14594 | -79.57772 | 24166 ft | 445 kts | 55° |
| 2026-04-30 21:53 | 26.16338 | -79.54913 | 24860 ft | 448 kts | 56° |
| 2026-04-30 21:54 | 26.18090 | -79.52025 | 25589 ft | 451 kts | 56° |
| 2026-04-30 21:54 | 26.19865 | -79.49154 | 26233 ft | 455 kts | 55° |
| 2026-04-30 21:54 | 26.21697 | -79.46243 | 26794 ft | 461 kts | 55° |
| 2026-04-30 21:54 | 26.23545 | -79.43303 | 27305 ft | 468 kts | 53° |
| 2026-04-30 21:55 | 26.25435 | -79.40314 | 27630 ft | 478 kts | 53° |
| 2026-04-30 21:55 | 26.27382 | -79.37255 | 27911 ft | 488 kts | 52° |
| 2026-04-30 21:55 | 26.29550 | -79.34347 | 28238 ft | 493 kts | 42° |
| 2026-04-30 21:55 | 26.32210 | -79.31930 | 28630 ft | 494 kts | 32° |
| 2026-04-30 21:56 | 26.35123 | -79.29897 | 29091 ft | 495 kts | 26° |
| 2026-04-30 21:56 | 26.38124 | -79.28028 | 29603 ft | 497 kts | 25° |
| 2026-04-30 21:56 | 26.41133 | -79.26115 | 30140 ft | 498 kts | 26° |
| 2026-04-30 21:56 | 26.44118 | -79.24129 | 30652 ft | 500 kts | 27° |
| 2026-04-30 21:57 | 26.47077 | -79.22077 | 31209 ft | 500 kts | 28° |
| 2026-04-30 21:57 | 26.49997 | -79.19993 | 31755 ft | 498 kts | 29° |
| 2026-04-30 21:57 | 26.52889 | -79.17881 | 32298 ft | 496 kts | 29° |
| 2026-04-30 21:57 | 26.55762 | -79.15786 | 32781 ft | 495 kts | 28° |
| 2026-04-30 21:58 | 26.58651 | -79.13687 | 33234 ft | 494 kts | 28° |
| 2026-04-30 21:58 | 26.61523 | -79.11587 | 33580 ft | 496 kts | 28° |
| 2026-04-30 21:58 | 26.64429 | -79.09482 | 33744 ft | 499 kts | 28° |
| 2026-04-30 21:58 | 26.67339 | -79.07386 | 33814 ft | 499 kts | 28° |
| 2026-04-30 21:59 | 26.73171 | -79.03203 | 33836 ft | 496 kts | 28° |
| 2026-04-30 22:00 | 26.81880 | -78.97002 | 33836 ft | 500 kts | 27° |
| 2026-04-30 22:00 | 26.90752 | -78.90700 | 33833 ft | 504 kts | 27° |
| 2026-04-30 22:01 | 26.96655 | -78.86493 | 33831 ft | 503 kts | 27° |
| 2026-04-30 22:01 | 27.02545 | -78.82264 | 33828 ft | 504 kts | 28° |
| 2026-04-30 22:02 | 27.08397 | -78.77954 | 33826 ft | 504 kts | 28° |
| 2026-04-30 22:02 | 27.14277 | -78.73682 | 33826 ft | 504 kts | 27° |
| 2026-04-30 22:03 | 27.20135 | -78.69445 | 33831 ft | 497 kts | 28° |
| 2026-04-30 22:03 | 27.25936 | -78.65202 | 33835 ft | 497 kts | 27° |
| 2026-04-30 22:04 | 27.28966 | -78.63418 | 33835 ft | 491 kts | 15° |
| 2026-04-30 22:04 | 27.32220 | -78.62359 | 33834 ft | 484 kts | 6° |
| 2026-04-30 22:05 | 27.42146 | -78.61382 | 33833 ft | 478 kts | 358° |
| 2026-04-30 22:05 | 27.48777 | -78.60765 | 33831 ft | 479 kts | 0° |
| 2026-04-30 22:06 | 27.55399 | -78.59946 | 33829 ft | 480 kts | 1° |
| 2026-04-30 22:06 | 27.65335 | -78.58596 | 33826 ft | 478 kts | 2° |
| 2026-04-30 22:07 | 27.71922 | -78.57662 | 33825 ft | 478 kts | 1° |
| 2026-04-30 22:07 | 27.78513 | -78.56754 | 33823 ft | 479 kts | 1° |
| 2026-04-30 22:08 | 27.85147 | -78.55871 | 33823 ft | 480 kts | 0° |
| 2026-04-30 22:08 | 27.91777 | -78.55083 | 33824 ft | 480 kts | 1° |
| 2026-04-30 22:09 | 27.98405 | -78.54273 | 33821 ft | 480 kts | 0° |
| 2026-04-30 22:09 | 28.05055 | -78.53420 | 33819 ft | 481 kts | 1° |
| 2026-04-30 22:10 | 28.11681 | -78.52529 | 33812 ft | 480 kts | 1° |
| 2026-04-30 22:10 | 28.18339 | -78.51595 | 33812 ft | 483 kts | 1° |
| 2026-04-30 22:11 | 28.28311 | -78.50199 | 33813 ft | 483 kts | 0° |
| 2026-04-30 22:12 | 28.35031 | -78.49387 | 33813 ft | 487 kts | 360° |
| 2026-04-30 22:12 | 28.41729 | -78.48568 | 33811 ft | 488 kts | 0° |
| 2026-04-30 22:13 | 28.48473 | -78.47681 | 33810 ft | 488 kts | 0° |
| 2026-04-30 22:13 | 28.55204 | -78.46829 | 33809 ft | 487 kts | 0° |
| 2026-04-30 22:14 | 28.60818 | -78.46105 | 33811 ft | 487 kts | 0° |
| 2026-04-30 22:14 | 28.67532 | -78.45193 | 33814 ft | 487 kts | 1° |
| 2026-04-30 22:15 | 28.74264 | -78.44222 | 33816 ft | 488 kts | 1° |
| 2026-04-30 22:15 | 28.80999 | -78.43271 | 33818 ft | 490 kts | 0° |
| 2026-04-30 22:16 | 28.87779 | -78.42315 | 33817 ft | 491 kts | 0° |
| 2026-04-30 22:17 | 29.01322 | -78.40645 | 33817 ft | 490 kts | 359° |
| 2026-04-30 22:17 | 29.11474 | -78.39366 | 33813 ft | 491 kts | 0° |
| 2026-04-30 22:18 | 29.21647 | -78.37885 | 33810 ft | 491 kts | 0° |
| 2026-04-30 22:19 | 29.31740 | -78.36439 | 33809 ft | 483 kts | 359° |
| 2026-04-30 22:20 | 29.41767 | -78.35187 | 33812 ft | 483 kts | 359° |
| 2026-04-30 22:20 | 29.51772 | -78.34250 | 33814 ft | 477 kts | 352° |
| 2026-04-30 22:21 | 29.58361 | -78.34684 | 33813 ft | 473 kts | 348° |
| 2026-04-30 22:21 | 29.64901 | -78.35340 | 33814 ft | 472 kts | 348° |
| 2026-04-30 22:22 | 29.71434 | -78.35945 | 33816 ft | 472 kts | 349° |
| 2026-04-30 22:22 | 29.77997 | -78.36466 | 33822 ft | 473 kts | 349° |
| 2026-04-30 22:23 | 29.84575 | -78.36897 | 33826 ft | 474 kts | 350° |
| 2026-04-30 22:23 | 29.91145 | -78.37333 | 33826 ft | 473 kts | 349° |
| 2026-04-30 22:24 | 29.97627 | -78.37811 | 33828 ft | 463 kts | 349° |
| 2026-04-30 22:24 | 30.04123 | -78.38327 | 33831 ft | 471 kts | 349° |
| 2026-04-30 22:25 | 30.10674 | -78.38845 | 33833 ft | 473 kts | 349° |
| 2026-04-30 22:25 | 30.17287 | -78.38698 | 33834 ft | 485 kts | 360° |
| 2026-04-30 22:26 | 30.27327 | -78.36556 | 33827 ft | 490 kts | 4° |
| 2026-04-30 22:27 | 30.33952 | -78.34958 | 33826 ft | 487 kts | 3° |
| 2026-04-30 22:27 | 30.43888 | -78.32679 | 33821 ft | 486 kts | 2° |
| 2026-04-30 22:28 | 30.53842 | -78.30541 | 33815 ft | 484 kts | 2° |
| 2026-04-30 22:29 | 30.67113 | -78.27869 | 33815 ft | 484 kts | 1° |
| 2026-04-30 22:31 | 30.90273 | -78.22909 | 33815 ft | 485 kts | 2° |
| 2026-04-30 22:32 | 31.06848 | -78.19426 | 33815 ft | 484 kts | 1° |
| 2026-04-30 22:33 | 31.23396 | -78.16014 | 33815 ft | 484 kts | 1° |
| 2026-04-30 22:35 | 31.40146 | -78.12283 | 33815 ft | 494 kts | 1° |
| 2026-04-30 22:36 | 31.57018 | -78.09297 | 33815 ft | 490 kts | 359° |
| 2026-04-30 22:37 | 31.70532 | -78.07148 | 33814 ft | 490 kts | 359° |
| 2026-04-30 22:38 | 31.84092 | -78.04753 | 33814 ft | 498 kts | 360° |
| 2026-04-30 22:39 | 31.94346 | -78.02989 | 33814 ft | 487 kts | 5° |
| 2026-04-30 22:40 | 32.14543 | -77.99440 | 33810 ft | 499 kts | 0° |
| 2026-04-30 22:41 | 32.31541 | -77.96424 | 33797 ft | 493 kts | 359° |
| 2026-04-30 22:43 | 32.51897 | -77.93063 | 33793 ft | 493 kts | 359° |
| 2026-04-30 22:44 | 32.65493 | -77.90572 | 33786 ft | 491 kts | 0° |
| 2026-04-30 22:45 | 32.85886 | -77.86989 | 33778 ft | 499 kts | 359° |
| 2026-04-30 22:47 | 33.06509 | -77.83256 | 33773 ft | 498 kts | 359° |
| 2026-04-30 22:48 | 33.20215 | -77.80939 | 33770 ft | 500 kts | 359° |
| 2026-04-30 22:49 | 33.40903 | -77.77228 | 33766 ft | 501 kts | 358° |
| 2026-04-30 22:51 | 33.61650 | -77.73480 | 33772 ft | 512 kts | 358° |
| 2026-04-30 22:52 | 33.72238 | -77.71626 | 33772 ft | 514 kts | 359° |
| 2026-04-30 22:53 | 33.86237 | -77.68482 | 33777 ft | 509 kts | 0° |
| 2026-04-30 22:53 | 33.96684 | -77.66141 | 33780 ft | 510 kts | 359° |
| 2026-04-30 22:54 | 34.03434 | -77.64648 | 33783 ft | 473 kts | 3° |
| 2026-04-30 22:55 | 34.13247 | -77.62508 | 33788 ft | 490 kts | 358° |
| 2026-04-30 22:55 | 34.20077 | -77.61098 | 33787 ft | 505 kts | 359° |
| 2026-04-30 22:56 | 34.27020 | -77.59637 | 33785 ft | 505 kts | 1° |
| 2026-04-30 22:57 | 34.44157 | -77.55705 | 33787 ft | 503 kts | 0° |
| 2026-04-30 22:58 | 34.57773 | -77.51406 | 33787 ft | 523 kts | 15° |
| 2026-04-30 22:59 | 34.77311 | -77.39874 | 33792 ft | 522 kts | 15° |